createdAt,value
2023-01-11T00:00:27.242Z,7.16
2023-01-11T00:01:27.238Z,7.13
2023-01-11T00:02:27.324Z,7.23
2023-01-11T00:03:27.171Z,7.19
2023-01-11T00:04:27.195Z,7.19
2023-01-11T00:05:27.115Z,7.20
2023-01-11T00:06:27.196Z,7.12
2023-01-11T00:07:27.062Z,7.13
2023-01-11T00:08:27.069Z,7.09
2023-01-11T00:09:27.054Z,7.07
2023-01-11T00:10:27.010Z,7.09
2023-01-11T00:11:26.960Z,7.05
2023-01-11T00:12:26.944Z,7.09
2023-01-11T00:13:26.911Z,7.05
2023-01-11T00:14:26.886Z,7.09
2023-01-11T00:15:26.884Z,7.15
2023-01-11T00:16:26.914Z,7.19
2023-01-11T00:17:26.805Z,7.09
2023-01-11T00:18:26.788Z,7.17
2023-01-11T00:19:26.756Z,7.15
2023-01-11T00:20:26.739Z,7.13
2023-01-11T00:21:26.780Z,7.08
2023-01-11T00:22:26.683Z,7.12
2023-01-11T00:23:26.662Z,7.15
2023-01-11T00:24:26.651Z,7.08
2023-01-11T00:25:26.607Z,7.20
2023-01-11T00:26:26.638Z,7.17
2023-01-11T00:27:26.558Z,7.22
2023-01-11T00:28:26.534Z,7.16
2023-01-11T00:29:26.504Z,7.17
2023-01-11T00:30:26.482Z,7.31
2023-01-11T00:31:26.557Z,7.23
2023-01-11T00:32:26.431Z,7.20
2023-01-11T00:33:26.415Z,7.23
2023-01-11T00:34:26.383Z,7.27
2023-01-11T00:35:26.356Z,7.35
2023-01-11T00:36:26.382Z,7.20
2023-01-11T00:37:26.300Z,7.24
2023-01-11T00:38:26.286Z,7.20
2023-01-11T00:39:26.252Z,7.27
2023-01-11T00:40:26.235Z,7.31
2023-01-11T00:41:26.199Z,7.24
2023-01-11T00:42:26.179Z,7.32
2023-01-11T00:43:26.150Z,7.31
2023-01-11T00:44:26.128Z,7.29
2023-01-11T00:45:26.106Z,7.32
2023-01-11T00:46:26.144Z,7.32
2023-01-11T00:47:26.051Z,7.35
2023-01-11T00:48:26.032Z,7.40
2023-01-11T00:49:26.002Z,7.41
2023-01-11T00:50:25.984Z,7.44
2023-01-11T00:51:25.957Z,7.41
2023-01-11T00:52:25.933Z,7.42
2023-01-11T00:53:25.905Z,7.45
2023-01-11T00:54:25.882Z,7.40
2023-01-11T00:55:25.854Z,7.42
2023-01-11T00:56:25.861Z,7.58
2023-01-11T00:57:25.796Z,7.58
2023-01-11T00:58:25.780Z,7.56
2023-01-11T00:59:25.750Z,7.60
2023-01-11T01:00:25.733Z,7.55
2023-01-11T01:01:25.757Z,7.59
2023-01-11T01:02:25.811Z,7.56
2023-01-11T01:03:25.670Z,7.58
2023-01-11T01:04:25.631Z,7.52
2023-01-11T01:05:25.594Z,7.63
2023-01-11T01:06:25.658Z,7.63
2023-01-11T01:07:25.542Z,7.49
2023-01-11T01:08:25.531Z,7.62
2023-01-11T01:09:25.503Z,7.72
2023-01-11T01:10:25.476Z,7.72
2023-01-11T01:11:25.465Z,7.77
2023-01-11T01:12:25.430Z,7.59
2023-01-11T01:13:25.423Z,7.66
2023-01-11T01:14:25.380Z,7.72
2023-01-11T01:15:25.350Z,7.67
2023-01-11T01:16:25.332Z,7.69
2023-01-11T01:17:25.304Z,7.62
2023-01-11T01:18:25.277Z,7.79
2023-01-11T01:19:25.247Z,7.85
2023-01-11T01:20:25.224Z,7.89
2023-01-11T01:21:25.209Z,7.84
2023-01-11T01:22:25.175Z,7.94
2023-01-11T01:23:25.167Z,7.92
2023-01-11T01:24:25.125Z,7.89
2023-01-11T01:25:25.115Z,7.94
2023-01-11T01:26:25.076Z,7.93
2023-01-11T01:27:25.048Z,7.92
2023-01-11T01:28:25.027Z,7.94
2023-01-11T01:29:24.996Z,7.92
2023-01-11T01:30:24.987Z,7.89
2023-01-11T01:31:25.039Z,7.99
2023-01-11T01:32:24.926Z,7.96
2023-01-11T01:33:24.895Z,7.92
2023-01-11T01:34:24.873Z,7.90
2023-01-11T01:35:24.846Z,7.84
2023-01-11T01:36:24.824Z,7.89
2023-01-11T01:37:24.799Z,7.90
2023-01-11T01:38:24.773Z,7.87
2023-01-11T01:39:24.751Z,7.87
2023-01-11T01:40:24.754Z,7.85
2023-01-11T01:41:24.690Z,7.90
2023-01-11T01:42:24.682Z,7.90
2023-01-11T01:43:24.646Z,7.93
2023-01-11T01:44:24.623Z,7.87
2023-01-11T01:45:24.606Z,7.89
2023-01-11T01:46:24.648Z,7.90
2023-01-11T01:47:24.548Z,7.90
2023-01-11T01:48:24.543Z,7.87
2023-01-11T01:49:24.509Z,7.87
2023-01-11T01:50:24.493Z,7.90
2023-01-11T01:51:24.441Z,7.89
2023-01-11T01:52:24.424Z,7.93
2023-01-11T01:53:24.407Z,7.85
2023-01-11T01:54:24.376Z,7.96
2023-01-11T01:55:24.339Z,7.97
2023-01-11T01:56:24.328Z,7.99
2023-01-11T01:57:24.333Z,8.00
2023-01-11T01:58:24.278Z,8.12
2023-01-11T01:59:24.251Z,8.14
2023-01-11T02:00:24.223Z,8.14
2023-01-11T02:01:24.238Z,8.11
2023-01-11T02:02:24.295Z,8.12
2023-01-11T02:03:24.142Z,8.12
2023-01-11T02:04:24.124Z,8.12
2023-01-11T02:05:24.123Z,8.28
2023-01-11T02:06:24.101Z,8.22
2023-01-11T02:07:24.041Z,8.26
2023-01-11T02:08:24.033Z,8.26
2023-01-11T02:09:24.020Z,8.32
2023-01-11T02:10:23.971Z,8.35
2023-01-11T02:11:23.943Z,8.36
2023-01-11T02:12:23.924Z,8.32
2023-01-11T02:13:23.908Z,8.45
2023-01-11T02:14:23.869Z,8.37
2023-01-11T02:15:23.849Z,8.33
2023-01-11T02:16:23.903Z,8.42
2023-01-11T02:17:23.809Z,8.37
2023-01-11T02:18:23.784Z,8.39
2023-01-11T02:19:23.744Z,8.39
2023-01-11T02:20:23.730Z,8.39
2023-01-11T02:21:23.691Z,8.30
2023-01-11T02:22:23.675Z,8.36
2023-01-11T02:23:23.646Z,8.44
2023-01-11T02:24:23.625Z,8.42
2023-01-11T02:25:23.594Z,8.44
2023-01-11T02:26:23.589Z,8.45
2023-01-11T02:27:23.608Z,8.57
2023-01-11T02:28:23.530Z,8.45
2023-01-11T02:29:23.498Z,8.50
2023-01-11T02:30:23.481Z,8.45
2023-01-11T02:31:23.459Z,8.48
2023-01-11T02:32:23.430Z,8.55
2023-01-11T02:33:23.401Z,8.57
2023-01-11T02:34:23.414Z,8.51
2023-01-11T02:35:23.342Z,8.55
2023-01-11T02:36:23.325Z,8.51
2023-01-11T02:37:23.295Z,8.55
2023-01-11T02:38:23.278Z,8.62
2023-01-11T02:39:23.245Z,8.62
2023-01-11T02:40:23.243Z,8.63
2023-01-11T02:41:23.197Z,8.63
2023-01-11T02:42:23.184Z,8.62
2023-01-11T02:43:23.164Z,8.62
2023-01-11T02:44:23.149Z,8.72
2023-01-11T02:45:23.092Z,8.58
2023-01-11T02:46:23.146Z,8.69
2023-01-11T02:47:23.051Z,8.73
2023-01-11T02:48:23.033Z,8.76
2023-01-11T02:49:22.998Z,8.68
2023-01-11T02:50:22.980Z,8.83
2023-01-11T02:51:22.963Z,8.71
2023-01-11T02:52:22.929Z,8.75
2023-01-11T02:53:22.893Z,8.76
2023-01-11T02:54:22.877Z,8.79
2023-01-11T02:55:22.850Z,8.79
2023-01-11T02:56:22.827Z,8.88
2023-01-11T02:57:22.799Z,8.84
2023-01-11T02:58:22.805Z,8.84
2023-01-11T02:59:22.781Z,8.86
2023-01-11T03:00:22.742Z,8.84
2023-01-11T03:01:22.966Z,8.84
2023-01-11T03:02:22.679Z,8.83
2023-01-11T03:03:22.647Z,8.93
2023-01-11T03:04:22.630Z,9.01
2023-01-11T03:05:22.601Z,8.96
2023-01-11T03:06:22.660Z,8.94
2023-01-11T03:07:22.553Z,8.86
2023-01-11T03:08:22.540Z,8.94
2023-01-11T03:09:22.505Z,8.94
2023-01-11T03:10:22.527Z,8.94
2023-01-11T03:11:22.456Z,8.93
2023-01-11T03:12:22.430Z,9.06
2023-01-11T03:13:22.403Z,9.04
2023-01-11T03:14:22.384Z,9.01
2023-01-11T03:15:22.360Z,8.97
2023-01-11T03:16:22.368Z,9.06
2023-01-11T03:17:22.308Z,8.99
2023-01-11T03:18:22.303Z,8.99
2023-01-11T03:19:22.257Z,9.01
2023-01-11T03:20:22.243Z,9.02
2023-01-11T03:21:22.230Z,8.99
2023-01-11T03:22:22.195Z,8.99
2023-01-11T03:23:22.157Z,9.09
2023-01-11T03:24:22.155Z,9.04
2023-01-11T03:25:22.108Z,8.99
2023-01-11T03:26:22.086Z,9.04
2023-01-11T03:27:22.054Z,8.99
2023-01-11T03:28:22.060Z,9.04
2023-01-11T03:29:22.034Z,9.09
2023-01-11T03:30:21.993Z,9.05
2023-01-11T03:31:21.996Z,9.09
2023-01-11T03:32:21.956Z,9.13
2023-01-11T03:33:21.917Z,9.13
2023-01-11T03:34:21.899Z,9.15
2023-01-11T03:35:21.861Z,9.16
2023-01-11T03:36:21.839Z,9.10
2023-01-11T03:37:21.831Z,9.16
2023-01-11T03:38:21.799Z,9.09
2023-01-11T03:39:21.767Z,9.10
2023-01-11T03:40:21.757Z,9.18
2023-01-11T03:41:21.714Z,9.13
2023-01-11T03:42:21.713Z,9.13
2023-01-11T03:43:21.665Z,9.24
2023-01-11T03:44:21.647Z,9.15
2023-01-11T03:45:21.621Z,9.18
2023-01-11T03:46:21.598Z,9.18
2023-01-11T03:47:21.567Z,9.25
2023-01-11T03:48:21.541Z,9.20
2023-01-11T03:49:21.524Z,9.23
2023-01-11T03:50:21.501Z,9.20
2023-01-11T03:51:21.468Z,9.20
2023-01-11T03:52:21.451Z,9.23
2023-01-11T03:53:21.414Z,9.25
2023-01-11T03:54:21.400Z,9.31
2023-01-11T03:55:21.368Z,9.38
2023-01-11T03:56:21.352Z,9.35
2023-01-11T03:57:21.330Z,9.40
2023-01-11T03:58:21.298Z,9.38
2023-01-11T03:59:21.274Z,9.35
2023-01-11T04:00:21.251Z,9.35
2023-01-11T04:01:21.259Z,9.43
2023-01-11T04:02:21.211Z,9.39
2023-01-11T04:03:21.177Z,9.32
2023-01-11T04:04:21.190Z,9.45
2023-01-11T04:05:21.125Z,9.48
2023-01-11T04:06:21.261Z,9.46
2023-01-11T04:07:21.084Z,9.46
2023-01-11T04:08:21.064Z,9.46
2023-01-11T04:09:21.019Z,9.49
2023-01-11T04:10:21.000Z,9.45
2023-01-11T04:11:20.978Z,9.49
2023-01-11T04:12:20.978Z,9.49
2023-01-11T04:13:20.945Z,9.45
2023-01-11T04:14:20.923Z,9.50
2023-01-11T04:15:20.889Z,9.45
2023-01-11T04:16:20.934Z,9.45
2023-01-11T04:17:20.838Z,9.48
2023-01-11T04:18:20.807Z,9.46
2023-01-11T04:19:20.780Z,9.49
2023-01-11T04:20:20.754Z,9.58
2023-01-11T04:21:20.738Z,9.60
2023-01-11T04:22:20.705Z,9.60
2023-01-11T04:23:20.687Z,9.56
2023-01-11T04:24:20.657Z,9.61
2023-01-11T04:25:20.634Z,9.58
2023-01-11T04:26:20.607Z,9.57
2023-01-11T04:27:20.613Z,9.56
2023-01-11T04:28:20.559Z,9.56
2023-01-11T04:29:20.540Z,9.57
2023-01-11T04:30:20.526Z,9.52
2023-01-11T04:31:20.514Z,9.56
2023-01-11T04:32:20.465Z,9.57
2023-01-11T04:33:20.444Z,9.58
2023-01-11T04:34:20.413Z,9.61
2023-01-11T04:35:20.390Z,9.63
2023-01-11T04:36:20.374Z,9.58
2023-01-11T04:37:20.351Z,9.61
2023-01-11T04:38:20.331Z,9.56
2023-01-11T04:39:20.295Z,9.46
2023-01-11T04:40:20.266Z,9.48
2023-01-11T04:41:22.709Z,9.46
2023-01-11T04:42:20.220Z,9.40
2023-01-11T04:43:20.198Z,9.42
2023-01-11T04:44:20.171Z,9.40
2023-01-11T04:45:20.165Z,9.40
2023-01-11T04:46:20.116Z,9.40
2023-01-11T04:47:20.113Z,9.35
2023-01-11T04:48:20.090Z,9.35
2023-01-11T04:49:20.044Z,9.35
2023-01-11T04:50:20.067Z,9.32
2023-01-11T04:51:20.006Z,9.34
2023-01-11T04:52:19.971Z,9.34
2023-01-11T04:53:20.105Z,9.35
2023-01-11T04:54:19.941Z,9.40
2023-01-11T04:55:19.920Z,9.42
2023-01-11T04:56:19.871Z,9.39
2023-01-11T04:57:19.852Z,9.46
2023-01-11T04:58:19.831Z,9.38
2023-01-11T04:59:19.806Z,9.45
2023-01-11T05:00:19.785Z,9.46
2023-01-11T05:01:19.820Z,9.49
2023-01-11T05:02:19.729Z,9.46
2023-01-11T05:03:19.708Z,9.49
2023-01-11T05:04:19.729Z,9.49
2023-01-11T05:05:19.663Z,9.45
2023-01-11T05:06:19.642Z,9.48
2023-01-11T05:07:19.617Z,9.45
2023-01-11T05:08:19.603Z,9.40
2023-01-11T05:12:19.562Z,9.46
2023-01-11T05:13:19.465Z,9.42
2023-01-11T05:14:19.435Z,9.49
2023-01-11T05:15:19.419Z,9.43
2023-01-11T05:16:19.434Z,9.30
2023-01-11T05:17:19.373Z,9.38
2023-01-11T05:18:19.336Z,9.30
2023-01-11T05:19:19.314Z,9.43
2023-01-11T05:20:19.301Z,9.40
2023-01-11T05:21:19.266Z,9.43
2023-01-11T05:22:19.367Z,9.39
2023-01-11T05:23:19.270Z,9.42
2023-01-11T05:24:19.186Z,9.35
2023-01-11T05:25:19.172Z,9.43
2023-01-11T05:26:19.169Z,9.39
2023-01-11T05:27:19.134Z,9.48
2023-01-11T05:28:19.086Z,9.48
2023-01-11T05:29:19.099Z,9.46
2023-01-11T05:30:19.053Z,9.46
2023-01-11T05:31:19.062Z,9.58
2023-01-11T05:32:19.006Z,9.56
2023-01-11T05:33:18.968Z,9.58
2023-01-11T05:34:18.943Z,9.58
2023-01-11T05:35:18.936Z,9.64
2023-01-11T05:36:18.914Z,9.58
2023-01-11T05:37:18.938Z,9.70
2023-01-11T05:38:18.886Z,9.70
2023-01-11T05:39:19.212Z,9.70
2023-01-11T05:40:18.826Z,9.78
2023-01-11T05:41:18.852Z,9.83
2023-01-11T05:42:18.753Z,9.82
2023-01-11T05:43:18.729Z,9.85
2023-01-11T05:44:18.771Z,9.88
2023-01-11T05:45:19.005Z,9.85
2023-01-11T05:46:18.668Z,9.85
2023-01-11T05:47:18.627Z,9.88
2023-01-11T05:48:18.710Z,9.82
2023-01-11T05:49:18.575Z,9.86
2023-01-11T05:50:18.546Z,9.91
2023-01-11T05:51:18.533Z,9.89
2023-01-11T05:52:18.501Z,9.99
2023-01-11T05:53:18.482Z,9.94
2023-01-11T05:54:18.451Z,9.96
2023-01-11T05:55:18.455Z,10.04
2023-01-11T05:56:18.402Z,10.00
2023-01-11T05:57:18.398Z,10.00
2023-01-11T05:58:18.355Z,10.01
2023-01-11T05:59:18.330Z,9.96
2023-01-11T06:00:18.303Z,9.97
2023-01-11T06:01:18.374Z,9.94
2023-01-11T06:02:18.405Z,10.04
2023-01-11T06:03:18.338Z,10.00
2023-01-11T06:04:18.207Z,9.97
2023-01-11T06:05:18.188Z,9.97
2023-01-11T06:06:18.163Z,9.97
2023-01-11T06:07:18.140Z,9.99
2023-01-11T06:08:18.110Z,10.00
2023-01-11T06:09:18.101Z,9.97
2023-01-11T06:10:18.058Z,9.97
2023-01-11T06:11:18.042Z,9.97
2023-01-11T06:12:18.052Z,10.00
2023-01-11T06:13:18.008Z,10.00
2023-01-11T06:14:17.979Z,9.99
2023-01-11T06:15:17.955Z,10.00
2023-01-11T06:16:17.965Z,9.93
2023-01-11T06:17:17.895Z,9.99
2023-01-11T06:18:17.964Z,10.04
2023-01-11T06:19:17.856Z,10.07
2023-01-11T06:20:17.823Z,10.04
2023-01-11T06:21:17.804Z,10.00
2023-01-11T06:22:17.763Z,9.97
2023-01-11T06:23:17.758Z,10.00
2023-01-11T06:24:17.721Z,9.89
2023-01-11T06:25:17.706Z,9.83
2023-01-11T06:26:17.668Z,9.93
2023-01-11T06:27:17.660Z,9.85
2023-01-11T06:28:17.632Z,9.82
2023-01-11T06:29:17.599Z,9.86
2023-01-11T06:30:17.579Z,9.89
2023-01-11T06:31:18.216Z,9.86
2023-01-11T06:32:17.547Z,9.88
2023-01-11T06:33:17.507Z,9.86
2023-01-11T06:34:17.473Z,9.81
2023-01-11T06:35:17.455Z,9.88
2023-01-11T06:36:17.433Z,9.93
2023-01-11T06:37:17.407Z,9.85
2023-01-11T06:38:17.397Z,9.83
2023-01-11T06:39:17.369Z,9.85
2023-01-11T06:40:17.327Z,9.85
2023-01-11T06:41:17.330Z,9.85
2023-01-11T06:42:17.282Z,9.86
2023-01-11T06:43:17.256Z,9.82
2023-01-11T06:44:17.284Z,9.79
2023-01-11T06:45:17.217Z,9.75
2023-01-11T06:46:17.280Z,9.79
2023-01-11T06:47:17.169Z,9.88
2023-01-11T06:48:17.139Z,9.75
2023-01-11T06:49:17.117Z,9.76
2023-01-11T06:50:17.117Z,9.83
2023-01-11T06:51:17.070Z,9.83
2023-01-11T06:52:17.037Z,9.85
2023-01-11T06:53:17.025Z,9.82
2023-01-11T06:54:16.996Z,9.79
2023-01-11T06:55:16.969Z,9.85
2023-01-11T06:56:16.934Z,9.88
2023-01-11T06:57:16.918Z,9.91
2023-01-11T06:58:16.902Z,9.96
2023-01-11T06:59:16.865Z,9.91
2023-01-11T07:00:16.833Z,9.97
2023-01-11T07:01:16.907Z,9.96
2023-01-11T07:02:16.787Z,10.10
2023-01-11T07:03:16.782Z,10.04
2023-01-11T07:04:16.748Z,9.99
2023-01-11T07:05:18.958Z,10.09
2023-01-11T07:06:16.692Z,10.14
2023-01-11T07:07:16.701Z,10.10
2023-01-11T07:08:16.644Z,10.14
2023-01-11T07:09:16.621Z,10.15
2023-01-11T07:10:16.606Z,10.18
2023-01-11T07:11:16.610Z,10.15
2023-01-11T07:12:16.540Z,10.22
2023-01-11T07:13:16.557Z,10.26
2023-01-11T07:14:16.503Z,10.28
2023-01-11T07:15:16.481Z,10.32
2023-01-11T07:16:16.531Z,10.34
2023-01-11T07:17:16.438Z,10.33
2023-01-11T07:18:16.399Z,10.46
2023-01-11T07:19:16.381Z,10.51
2023-01-11T07:20:16.357Z,10.42
2023-01-11T07:21:16.348Z,10.53
2023-01-11T07:22:16.325Z,10.44
2023-01-11T07:23:16.285Z,10.46
2023-01-11T07:24:16.260Z,10.47
2023-01-11T07:25:16.235Z,10.47
2023-01-11T07:26:16.250Z,10.46
2023-01-11T07:27:16.191Z,10.46
2023-01-11T07:28:16.161Z,10.47
2023-01-11T07:29:16.135Z,10.51
2023-01-11T07:30:16.109Z,10.53
2023-01-11T07:31:16.118Z,10.53
2023-01-11T07:32:16.059Z,10.40
2023-01-11T07:33:16.037Z,10.52
2023-01-11T07:34:16.012Z,10.43
2023-01-11T07:35:15.991Z,10.33
2023-01-11T07:36:15.957Z,10.33
2023-01-11T07:37:28.653Z,10.32
2023-01-11T07:38:15.942Z,10.30
2023-01-11T07:39:15.899Z,10.37
2023-01-11T07:40:15.879Z,10.30
2023-01-11T07:41:15.851Z,10.39
2023-01-11T07:42:15.812Z,10.28
2023-01-11T07:43:15.824Z,10.30
2023-01-11T07:44:15.774Z,10.33
2023-01-11T07:45:15.826Z,10.26
2023-01-11T07:46:15.928Z,10.30
2023-01-11T07:47:15.707Z,10.33
2023-01-11T07:48:15.673Z,10.33
2023-01-11T07:49:15.657Z,10.30
2023-01-11T07:50:15.625Z,10.37
2023-01-11T07:51:15.600Z,10.28
2023-01-11T07:52:15.577Z,10.34
2023-01-11T07:53:15.588Z,10.32
2023-01-11T07:54:15.548Z,10.43
2023-01-11T07:55:15.513Z,10.43
2023-01-11T07:56:15.494Z,10.40
2023-01-11T07:57:15.458Z,10.34
2023-01-11T07:58:15.453Z,10.33
2023-01-11T07:59:15.408Z,10.33
2023-01-11T08:00:15.379Z,10.33
2023-01-11T08:01:15.361Z,10.34
2023-01-11T08:02:15.328Z,10.43
2023-01-11T08:03:15.398Z,10.36
2023-01-11T08:04:15.288Z,10.39
2023-01-11T08:05:15.261Z,10.36
2023-01-11T08:06:15.265Z,10.40
2023-01-11T08:07:15.216Z,10.34
2023-01-11T08:08:15.188Z,10.44
2023-01-11T08:09:15.167Z,10.42
2023-01-11T08:10:15.142Z,10.43
2023-01-11T08:11:15.128Z,10.47
2023-01-11T08:12:15.088Z,10.51
2023-01-11T08:13:15.089Z,10.47
2023-01-11T08:14:15.060Z,10.46
2023-01-11T08:15:15.019Z,10.37
2023-01-11T08:16:15.044Z,10.42
2023-01-11T08:17:14.988Z,10.33
2023-01-11T08:18:14.951Z,10.40
2023-01-11T08:19:14.918Z,10.36
2023-01-11T08:20:14.893Z,10.33
2023-01-11T08:22:14.846Z,10.33
2023-01-11T08:23:14.852Z,10.32
2023-01-11T08:24:14.799Z,10.32
2023-01-11T08:25:14.844Z,10.28
2023-01-11T08:26:14.798Z,10.32
2023-01-11T08:27:14.780Z,10.30
2023-01-11T08:29:14.679Z,10.32
2023-01-11T08:30:14.682Z,10.30
2023-01-11T08:32:14.689Z,10.28
2023-01-11T08:33:14.644Z,10.30
2023-01-11T08:34:14.647Z,10.37
2023-01-11T08:35:14.555Z,10.33
2023-01-11T08:36:14.552Z,10.36
2023-01-11T08:38:15.192Z,10.33
2023-01-11T08:39:14.439Z,10.32
2023-01-11T08:40:14.412Z,10.33
2023-01-11T08:41:14.450Z,10.43
2023-01-11T08:42:14.393Z,10.44
2023-01-11T08:43:14.346Z,10.44
2023-01-11T08:44:15.010Z,10.36
2023-01-11T08:45:14.280Z,10.40
2023-01-11T08:46:14.304Z,10.34
2023-01-11T08:47:14.235Z,10.40
2023-01-11T08:48:14.222Z,10.37
2023-01-11T08:49:14.188Z,10.37
2023-01-11T08:51:14.314Z,10.51
2023-01-11T08:52:14.200Z,10.43
2023-01-11T08:54:14.459Z,10.44
2023-01-11T08:55:14.067Z,10.42
2023-01-11T08:56:14.154Z,10.44
2023-01-11T08:57:15.011Z,10.53
2023-01-11T08:58:14.102Z,10.53
2023-01-11T08:59:14.179Z,10.51
2023-01-11T09:00:14.006Z,10.42
2023-01-11T09:01:13.975Z,10.43
2023-01-11T09:02:13.881Z,10.43
2023-01-11T09:03:13.904Z,10.43
2023-01-11T09:04:24.141Z,10.44
2023-01-11T09:05:13.803Z,10.59
2023-01-11T09:06:13.774Z,10.52
2023-01-11T09:07:13.767Z,10.42
2023-01-11T09:08:13.725Z,10.56
2023-01-11T09:09:13.709Z,10.44
2023-01-11T09:10:13.687Z,10.42
2023-01-11T09:11:13.674Z,10.52
2023-01-11T09:12:13.644Z,10.51
2023-01-11T09:13:13.650Z,10.46
2023-01-11T09:14:13.612Z,10.51
2023-01-11T09:15:13.558Z,10.52
2023-01-11T09:16:13.558Z,10.44
2023-01-11T09:17:13.519Z,10.52
2023-01-11T09:18:13.483Z,10.51
2023-01-11T09:19:13.463Z,10.51
2023-01-11T09:20:13.436Z,10.56
2023-01-11T09:21:13.420Z,10.52
2023-01-11T09:22:13.388Z,10.55
2023-01-11T09:23:13.363Z,10.58
2023-01-11T09:24:13.780Z,10.58
2023-01-11T09:25:13.433Z,10.66
2023-01-11T09:26:13.303Z,10.62
2023-01-11T09:27:13.312Z,10.58
2023-01-11T09:28:13.250Z,10.58
2023-01-11T09:29:13.253Z,10.63
2023-01-11T09:30:13.205Z,10.59
2023-01-11T09:31:13.278Z,10.59
2023-01-11T09:32:13.151Z,10.66
2023-01-11T09:33:13.115Z,10.66
2023-01-11T09:34:13.109Z,10.66
2023-01-11T09:35:13.065Z,10.65
2023-01-11T09:36:13.049Z,10.63
2023-01-11T09:37:13.035Z,10.62
2023-01-11T09:38:13.002Z,10.60
2023-01-11T09:39:13.034Z,10.71
2023-01-11T09:40:13.919Z,10.70
2023-01-11T09:41:12.941Z,10.68
2023-01-11T09:42:12.911Z,10.73
2023-01-11T09:43:12.972Z,10.70
2023-01-11T09:44:12.871Z,10.60
2023-01-11T09:45:12.826Z,10.65
2023-01-11T09:46:12.910Z,10.60
2023-01-11T09:47:12.797Z,10.62
2023-01-11T09:48:12.766Z,10.60
2023-01-11T09:49:12.725Z,10.59
2023-01-11T09:50:12.788Z,10.63
2023-01-11T09:51:12.682Z,10.60
2023-01-11T09:52:12.661Z,10.63
2023-01-11T09:53:12.633Z,10.70
2023-01-11T09:54:12.615Z,10.70
2023-01-11T09:55:12.612Z,10.68
2023-01-11T09:56:12.576Z,10.63
2023-01-11T09:57:12.535Z,10.70
2023-01-11T09:58:12.520Z,10.70
2023-01-11T09:59:12.482Z,10.76
2023-01-11T10:01:12.599Z,10.78
2023-01-11T10:02:12.802Z,10.71
2023-01-11T10:03:12.448Z,10.76
2023-01-11T10:04:12.480Z,10.73
2023-01-11T10:05:12.350Z,10.76
2023-01-11T10:06:12.336Z,10.76
2023-01-11T10:07:12.301Z,10.78
2023-01-11T10:18:23.432Z,10.81
2023-01-11T10:18:26.031Z,10.71
2023-01-11T10:18:29.667Z,10.84
2023-01-11T10:18:31.014Z,10.73
2023-01-11T10:18:33.346Z,10.81
2023-01-11T10:19:33.328Z,10.78
2023-01-11T10:20:12.057Z,10.78
2023-01-11T10:21:11.973Z,10.77
2023-01-11T10:22:11.942Z,10.77
2023-01-11T10:23:11.921Z,10.68
2023-01-11T10:24:11.890Z,10.73
2023-01-11T10:25:12.046Z,10.68
2023-01-11T10:26:11.835Z,10.74
2023-01-11T10:27:11.830Z,10.77
2023-01-11T10:28:11.788Z,10.68
2023-01-11T10:29:11.774Z,10.74
2023-01-11T10:30:11.744Z,10.77
2023-01-11T10:31:11.819Z,10.70
2023-01-11T10:32:11.700Z,10.74
2023-01-11T10:33:11.663Z,10.70
2023-01-11T10:34:11.669Z,10.80
2023-01-11T10:35:11.675Z,10.68
2023-01-11T10:36:11.600Z,10.83
2023-01-11T10:37:11.570Z,10.77
2023-01-11T10:38:11.544Z,10.76
2023-01-11T10:39:11.532Z,10.80
2023-01-11T10:40:11.501Z,10.83
2023-01-11T10:41:11.482Z,10.78
2023-01-11T10:42:11.484Z,10.74
2023-01-11T10:43:11.429Z,10.77
2023-01-11T10:44:11.427Z,10.84
2023-01-11T10:45:11.373Z,10.80
2023-01-11T10:46:11.390Z,10.77
2023-01-11T10:47:11.330Z,10.73
2023-01-11T10:48:11.312Z,10.71
2023-01-11T10:49:11.278Z,10.77
2023-01-11T10:50:11.294Z,10.78
2023-01-11T10:51:11.232Z,10.83
2023-01-11T10:53:11.202Z,10.86
2023-01-11T10:54:11.168Z,10.84
2023-01-11T10:55:11.487Z,10.88
2023-01-11T10:56:11.279Z,10.83
2023-01-11T10:57:11.275Z,10.86
2023-01-11T10:58:11.132Z,10.88
2023-01-11T10:59:11.168Z,10.91
2023-01-11T11:00:11.586Z,10.88
2023-01-11T11:01:11.057Z,10.96
2023-01-11T11:02:11.034Z,10.89
2023-01-11T11:03:10.951Z,11.02
2023-01-11T11:04:10.925Z,11.01
2023-01-11T11:05:11.022Z,10.99
2023-01-11T11:06:10.989Z,10.99
2023-01-11T11:07:10.953Z,10.98
2023-01-11T11:08:12.056Z,10.99
2023-01-11T11:09:10.807Z,11.03
2023-01-11T11:10:10.813Z,10.99
2023-01-11T11:11:10.754Z,11.01
2023-01-11T11:12:10.740Z,11.01
2023-01-11T11:13:10.724Z,11.13
2023-01-11T11:14:10.685Z,11.29
2023-01-11T11:15:10.666Z,11.34
2023-01-11T11:16:10.704Z,11.32
2023-01-11T11:17:10.613Z,11.39
2023-01-11T11:18:10.591Z,11.36
2023-01-11T11:19:10.587Z,11.47
2023-01-11T11:20:10.539Z,11.43
2023-01-11T11:21:10.511Z,11.47
2023-01-11T11:22:10.494Z,11.47
2023-01-11T11:23:10.479Z,11.49
2023-01-11T11:24:10.481Z,11.50
2023-01-11T11:25:10.428Z,11.53
2023-01-11T11:26:10.403Z,11.57
2023-01-11T11:27:10.449Z,11.47
2023-01-11T11:28:10.349Z,11.49
2023-01-11T11:29:10.324Z,11.53
2023-01-11T11:30:10.314Z,11.53
2023-01-11T11:31:10.289Z,11.61
2023-01-11T11:32:10.255Z,11.49
2023-01-11T11:33:10.246Z,11.44
2023-01-11T11:34:10.205Z,11.49
2023-01-11T11:35:10.178Z,11.52
2023-01-11T11:36:10.172Z,11.52
2023-01-11T11:37:10.135Z,11.46
2023-01-11T11:38:10.112Z,11.56
2023-01-11T11:39:10.094Z,11.54
2023-01-11T11:40:10.062Z,11.50
2023-01-11T11:41:10.054Z,11.53
2023-01-11T11:42:10.015Z,11.57
2023-01-11T11:43:09.994Z,11.64
2023-01-11T11:44:09.972Z,11.71
2023-01-11T11:45:09.956Z,11.62
2023-01-11T11:46:09.979Z,11.83
2023-01-11T11:47:09.921Z,11.87
2023-01-11T11:48:09.875Z,11.87
2023-01-11T11:49:09.922Z,11.87
2023-01-11T11:50:09.825Z,11.96
2023-01-11T11:51:09.800Z,11.93
2023-01-11T11:52:09.786Z,12.02
2023-01-11T11:53:09.775Z,11.90
2023-01-11T11:54:09.760Z,11.97
2023-01-11T11:55:09.716Z,11.99
2023-01-11T11:56:09.696Z,11.99
2023-01-11T11:57:09.675Z,12.04
2023-01-11T11:58:09.654Z,11.99
2023-01-11T11:59:09.622Z,12.01
2023-01-11T12:00:09.627Z,12.02
2023-01-11T12:01:09.605Z,11.93
2023-01-11T12:02:09.627Z,11.87
2023-01-11T12:03:09.525Z,11.87
2023-01-11T12:04:09.518Z,11.94
2023-01-11T12:05:09.601Z,11.89
2023-01-11T12:06:09.461Z,12.01
2023-01-11T12:07:09.436Z,12.04
2023-01-11T12:08:09.444Z,12.01
2023-01-11T12:09:09.430Z,12.01
2023-01-11T12:10:09.374Z,12.04
2023-01-11T12:11:09.344Z,12.05
2023-01-11T12:12:09.373Z,12.13
2023-01-11T12:13:09.331Z,12.13
2023-01-11T12:14:09.283Z,12.16
2023-01-11T12:15:09.258Z,12.11
2023-01-11T12:16:09.237Z,12.15
2023-01-11T12:17:09.211Z,12.15
2023-01-11T12:18:09.199Z,12.23
2023-01-11T12:19:09.162Z,12.23
2023-01-11T12:20:09.145Z,12.26
2023-01-11T12:21:09.122Z,12.27
2023-01-11T12:22:09.101Z,12.24
2023-01-11T12:23:09.077Z,12.26
2023-01-11T12:24:09.057Z,12.30
2023-01-11T12:25:09.025Z,12.27
2023-01-11T12:26:09.106Z,12.31
2023-01-11T12:27:09.044Z,12.26
2023-01-11T12:28:08.961Z,12.30
2023-01-11T12:29:08.939Z,12.23
2023-01-11T12:30:08.953Z,12.16
2023-01-11T12:31:08.918Z,12.16
2023-01-11T12:32:08.869Z,12.12
2023-01-11T12:33:08.841Z,12.19
2023-01-11T12:34:08.826Z,12.19
2023-01-11T12:35:08.829Z,12.15
2023-01-11T12:36:08.792Z,12.16
2023-01-11T12:37:08.787Z,12.15
2023-01-11T12:38:08.736Z,12.13
2023-01-11T12:39:08.706Z,12.16
2023-01-11T12:40:08.693Z,12.11
2023-01-11T12:41:08.856Z,12.01
2023-01-11T12:42:08.660Z,12.02
2023-01-11T12:43:08.624Z,11.89
2023-01-11T12:44:08.659Z,11.97
2023-01-11T12:45:08.649Z,11.97
2023-01-11T12:46:08.569Z,11.96
2023-01-11T12:47:08.530Z,11.93
2023-01-11T12:48:08.526Z,11.93
2023-01-11T12:49:08.492Z,11.87
2023-01-11T12:50:08.471Z,11.90
2023-01-11T12:51:08.438Z,11.83
2023-01-11T12:52:08.411Z,11.83
2023-01-11T12:53:08.406Z,11.87
2023-01-11T12:54:08.368Z,11.86
2023-01-11T12:55:08.357Z,11.85
2023-01-11T12:56:08.321Z,11.85
2023-01-11T12:57:08.296Z,11.87
2023-01-11T12:58:08.673Z,11.89
2023-01-11T12:59:08.252Z,11.78
2023-01-11T13:00:08.220Z,11.78
2023-01-11T13:01:08.347Z,11.85
2023-01-11T13:02:08.236Z,11.78
2023-01-11T13:03:08.162Z,11.62
2023-01-11T13:04:09.570Z,11.75
2023-01-11T13:05:08.122Z,11.75
2023-01-11T13:06:08.079Z,11.64
2023-01-11T13:07:08.063Z,11.78
2023-01-11T13:08:08.039Z,11.75
2023-01-11T13:09:08.023Z,11.78
2023-01-11T13:10:08.009Z,11.72
2023-01-11T13:11:08.002Z,11.70
2023-01-11T13:12:07.981Z,11.77
2023-01-11T13:13:07.968Z,11.77
2023-01-11T13:14:08.009Z,11.71
2023-01-11T13:15:07.915Z,11.72
2023-01-11T13:16:07.869Z,11.67
2023-01-11T13:17:07.830Z,11.67
2023-01-11T13:18:07.823Z,11.61
2023-01-11T13:19:07.818Z,11.70
2023-01-11T13:20:07.758Z,11.71
2023-01-11T13:21:07.772Z,11.75
2023-01-11T13:22:07.735Z,11.74